Kenmare, North Dakota
Current Conditions -  °F | °C
As of 8:35 PM on Friday 24 Oct 2014 (Local Time) from K08D Reporting Station
NA  
Wind Chill: 32°   Ceiling: NA
Heat Index: 39°   Visibility: 10mi
Dew Point: 32°   Wind: 10mph
Humidity: 75%   Direction: 270°W
Pressure: 29.98"   Gusts: NA
Location:  48.67°N, 102.08°W
Report Text: K08D 250135Z AUTO 27009KT 10SM 04/00 A2998 RMK AO2
Loading
Personal Weather Stations






























Interactive Weather Map
Tropical Storm Tracking
New forecast layout! Learn more

10-Day Weather Forecast

Advertisements
Track Severe Weather on mobile